ROAH

Naha Airport

Airport
ICAO code
ROAH
IATA Code
OKA
Summary
ICAO Region
APAC
ICAO Territory
Location

Naha, Okinawa Prefecture

Serving
Naha
Elevation
11 ft
Coordinates
26° 12' 24" N , 127° 39' 2" E
KCC
Airport WX
Tropical Revolving Storm
Metar
Observation
ROAH 060530Z 01012KT 9999 VCSH FEW030 29/24 Q1014 RMK 2CU030 A2996
Station
Naha Airport
Date/Time
2022-10-06 05:30:00
Wind direction
10°
Wind speed
12 kts
Lowest cloud amount
few clouds
Temperature
29°C
Dew point
24°C
Humidity
74%
QNH
1014 hPa
Weather condition
in vicinity: showers

Naha Airport is located on the Island of Okinawa 4 km west of the centre of Naha. The airport is a joint civil and military base. The airport is in close proximity to the USAF base at Kadena and the USMC base at Futenma. The extended centrelines of both of these airfields intersect the approach to RWY 18 at Naha and this restricts and influences the types of approach available.

Climatology

Humid Sub-tropical climate (Köppen climate classification Cfa)

Occasional Typhoons coming from South China Sea.

Runways

Designator Length Width Surface Rops
18/36 2999 46 ASP Yes/Yes

SKYbrary Partners:

Safety knowledge contributed by: